createdAt,value
2022-10-23T00:00:05.338Z,84.72
2022-10-23T00:03:11.109Z,89.05
2022-10-23T00:05:56.666Z,51.47
2022-10-23T00:08:42.985Z,66.60
2022-10-23T00:11:30.300Z,73.53
2022-10-23T00:14:17.810Z,61.90
2022-10-23T00:17:03.766Z,91.40
2022-10-23T00:19:49.594Z,93.63
2022-10-23T00:22:35.550Z,56.75
2022-10-23T00:25:21.730Z,96.60
2022-10-23T00:28:07.229Z,66.15
2022-10-23T00:30:53.573Z,84.93
2022-10-23T00:33:39.184Z,108.13
2022-10-23T00:36:25.168Z,67.50
2022-10-23T00:39:10.789Z,54.47
2022-10-23T00:41:56.760Z,51.60
2022-10-23T00:44:42.497Z,64.82
2022-10-23T00:47:28.482Z,69.15
2022-10-23T00:50:14.179Z,69.57
2022-10-23T00:53:02.763Z,60.08
2022-10-23T00:55:50.595Z,72.13
2022-10-23T00:58:36.437Z,54.90
2022-10-23T01:01:24.197Z,62.20
2022-10-23T01:04:10.967Z,59.95
2022-10-23T01:07:23.404Z,63.63
2022-10-23T01:10:18.589Z,44.92
2022-10-23T01:13:07.368Z,55.35
2022-10-23T01:15:56.101Z,51.60
2022-10-23T01:18:45.938Z,65.20
2022-10-23T01:21:48.067Z,49.55
2022-10-23T01:24:54.978Z,80.15
2022-10-23T01:27:42.846Z,48.63
2022-10-23T01:30:29.468Z,52.45
2022-10-23T01:33:20.018Z,49.00
2022-10-23T01:36:12.953Z,62.42
2022-10-23T01:39:27.459Z,65.15
2022-10-23T01:42:28.389Z,42.63
2022-10-23T01:45:49.092Z,43.83
2022-10-23T01:48:37.890Z,51.75
2022-10-23T01:51:26.502Z,54.10
2022-10-23T01:54:13.864Z,46.22
2022-10-23T01:57:02.444Z,48.28
2022-10-23T02:00:14.560Z,51.45
2022-10-23T02:03:13.805Z,45.40
2022-10-23T02:05:59.928Z,38.38
2022-10-23T02:08:46.192Z,38.13
2022-10-23T02:11:35.373Z,51.70
2022-10-23T02:15:03.993Z,56.33
2022-10-23T02:18:09.703Z,47.80
2022-10-23T02:21:10.865Z,47.38
2022-10-23T02:24:16.529Z,44.25
2022-10-23T02:27:11.598Z,32.47
2022-10-23T02:30:04.199Z,42.95
2022-10-23T02:32:53.000Z,47.58
2022-10-23T02:35:39.927Z,41.90
2022-10-23T02:38:41.685Z,48.78
2022-10-23T02:41:41.860Z,47.75
2022-10-23T02:44:56.326Z,50.15
2022-10-23T02:48:01.608Z,45.00
2022-10-23T02:51:04.039Z,52.08
2022-10-23T02:54:02.024Z,50.78
2022-10-23T02:57:26.751Z,53.28
2022-10-23T03:00:15.825Z,68.95
2022-10-23T03:03:16.075Z,58.40
2022-10-23T03:06:01.983Z,60.58
2022-10-23T03:09:04.250Z,60.28
2022-10-23T03:11:50.854Z,54.17
2022-10-23T03:14:37.282Z,55.67
2022-10-23T03:17:23.016Z,52.78
2022-10-23T03:20:12.959Z,64.43
2022-10-23T03:22:58.449Z,54.25
2022-10-23T03:25:45.916Z,51.17
2022-10-23T03:28:44.633Z,59.40
2022-10-23T03:31:30.492Z,57.67
2022-10-23T03:34:19.374Z,51.13
2022-10-23T03:37:05.591Z,52.85
2022-10-23T03:39:51.164Z,53.85
2022-10-23T03:42:37.584Z,54.05
2022-10-23T03:45:23.297Z,53.08
2022-10-23T03:48:09.371Z,47.55
2022-10-23T03:50:55.311Z,54.40
2022-10-23T03:53:41.431Z,51.08
2022-10-23T03:56:26.894Z,50.65
2022-10-23T03:59:12.763Z,49.42
2022-10-23T04:01:58.437Z,49.50
2022-10-23T04:04:44.815Z,48.28
2022-10-23T04:07:30.460Z,43.72
2022-10-23T04:10:19.860Z,46.90
2022-10-23T04:13:05.229Z,50.28
2022-10-23T04:15:54.858Z,47.38
2022-10-23T04:18:42.697Z,49.67
2022-10-23T04:21:29.381Z,49.42
2022-10-23T04:24:14.924Z,45.10
2022-10-23T04:27:01.873Z,39.42
2022-10-23T04:29:49.275Z,41.85
2022-10-23T04:32:35.404Z,43.17
2022-10-23T04:35:23.275Z,46.17
2022-10-23T04:38:08.885Z,40.70
2022-10-23T04:40:54.868Z,50.72
2022-10-23T04:43:41.729Z,38.40
2022-10-23T04:46:27.230Z,58.55
2022-10-23T04:49:13.034Z,76.85
2022-10-23T04:52:17.074Z,66.32
2022-10-23T04:55:18.389Z,49.13
2022-10-23T04:58:11.249Z,139.85
2022-10-23T05:00:57.527Z,240.70
2022-10-23T05:03:45.197Z,223.18
2022-10-23T05:06:32.157Z,190.75
2022-10-23T05:09:56.222Z,212.18
2022-10-23T05:12:46.966Z,130.68
2022-10-23T05:15:32.511Z,107.20
2022-10-23T05:18:46.793Z,81.78
2022-10-23T05:21:33.285Z,61.20
2022-10-23T05:24:19.101Z,53.58
2022-10-23T05:27:13.696Z,66.53
2022-10-23T05:30:02.527Z,56.33
2022-10-23T05:32:53.137Z,59.47
2022-10-23T05:35:41.813Z,54.47
2022-10-23T05:38:29.834Z,48.60
2022-10-23T05:41:15.927Z,58.10
2022-10-23T05:44:01.781Z,86.57
2022-10-23T05:47:26.261Z,51.50
2022-10-23T05:50:24.585Z,50.83
2022-10-23T05:53:33.309Z,48.30
2022-10-23T05:56:30.806Z,48.60
2022-10-23T05:59:28.954Z,44.72
2022-10-23T06:02:41.802Z,74.13
2022-10-23T06:05:50.329Z,120.80
2022-10-23T06:08:39.575Z,151.82
2022-10-23T06:11:25.789Z,82.60
2022-10-23T06:14:19.072Z,102.57
2022-10-23T06:17:04.924Z,286.05
2022-10-23T06:20:02.345Z,177.20
2022-10-23T06:22:52.997Z,61.92
2022-10-23T06:26:01.344Z,161.98
2022-10-23T06:28:58.397Z,104.07
2022-10-23T06:31:45.505Z,112.93
2022-10-23T06:34:32.382Z,96.65
2022-10-23T06:37:18.016Z,73.75
2022-10-23T06:40:19.148Z,55.55
2022-10-23T06:43:21.408Z,71.70
2022-10-23T06:46:34.879Z,57.97
2022-10-23T06:49:40.030Z,60.30
2022-10-23T06:52:45.852Z,52.53
2022-10-23T06:55:33.726Z,59.50
2022-10-23T06:58:19.731Z,58.88
2022-10-23T07:01:28.722Z,55.17
2022-10-23T07:04:14.733Z,52.75
2022-10-23T07:07:01.714Z,51.53
2022-10-23T07:09:56.548Z,51.88
2022-10-23T07:13:03.172Z,47.92
2022-10-23T07:16:23.816Z,54.05
2022-10-23T07:19:09.532Z,52.90
2022-10-23T07:22:15.786Z,54.22
2022-10-23T07:25:25.213Z,57.55
2022-10-23T07:28:12.125Z,53.25
2022-10-23T07:31:01.119Z,49.53
2022-10-23T07:34:07.126Z,49.35
2022-10-23T07:36:54.829Z,48.92
2022-10-23T07:39:40.888Z,45.97
2022-10-23T07:42:26.339Z,44.85
2022-10-23T07:45:12.753Z,48.72
2022-10-23T07:48:01.888Z,45.97
2022-10-23T07:51:01.862Z,45.42
2022-10-23T07:53:49.364Z,46.42
2022-10-23T07:56:54.381Z,45.53
2022-10-23T07:59:44.254Z,41.78
2022-10-23T08:02:31.791Z,41.65
2022-10-23T08:05:19.771Z,48.55
2022-10-23T08:08:12.635Z,41.85
2022-10-23T08:11:00.920Z,49.75
2022-10-23T08:13:53.152Z,43.95
2022-10-23T08:16:39.546Z,52.83
2022-10-23T08:19:25.904Z,44.90
2022-10-23T08:22:12.748Z,63.17
2022-10-23T08:24:58.909Z,42.50
2022-10-23T08:27:44.808Z,48.85
2022-10-23T08:30:33.035Z,47.72
2022-10-23T08:33:18.619Z,55.60
2022-10-23T08:36:05.123Z,54.28
2022-10-23T08:38:54.886Z,47.05
2022-10-23T08:41:44.131Z,40.40
2022-10-23T08:44:33.136Z,51.67
2022-10-23T08:47:26.697Z,45.58
2022-10-23T08:50:34.579Z,54.22
2022-10-23T08:53:23.226Z,53.83
2022-10-23T08:56:16.281Z,45.40
2022-10-23T08:59:28.422Z,48.72
2022-10-23T09:02:19.220Z,50.83
2022-10-23T09:05:06.942Z,41.85
2022-10-23T09:08:21.738Z,54.58
2022-10-23T09:11:16.679Z,46.78
2022-10-23T09:14:19.537Z,43.53
2022-10-23T09:17:28.108Z,39.72
2022-10-23T09:20:18.242Z,39.47
2022-10-23T09:23:19.179Z,38.17
2022-10-23T09:26:25.172Z,42.60
2022-10-23T09:29:29.573Z,38.30
2022-10-23T09:32:15.132Z,41.35
2022-10-23T09:35:00.714Z,65.05
2022-10-23T09:37:48.506Z,63.30
2022-10-23T09:40:44.439Z,54.55
2022-10-23T09:43:30.318Z,51.67
2022-10-23T09:46:22.178Z,48.90
2022-10-23T09:49:27.233Z,44.42
2022-10-23T09:52:13.084Z,38.72
2022-10-23T09:55:00.804Z,43.20
2022-10-23T09:57:47.316Z,47.85
2022-10-23T10:00:33.745Z,47.28
2022-10-23T10:03:23.923Z,49.35
2022-10-23T10:06:32.189Z,53.55
2022-10-23T10:09:18.424Z,47.13
2022-10-23T10:12:33.922Z,51.90
2022-10-23T10:15:24.957Z,42.45
2022-10-23T10:18:39.769Z,61.10
2022-10-23T10:21:39.011Z,45.70
2022-10-23T10:24:32.670Z,68.70
2022-10-23T10:27:55.406Z,46.55
2022-10-23T10:30:56.042Z,45.67
2022-10-23T10:34:03.290Z,45.65
2022-10-23T10:36:56.803Z,43.90
2022-10-23T10:39:50.429Z,45.63
2022-10-23T10:42:56.119Z,46.22
2022-10-23T10:45:49.778Z,37.47
2022-10-23T10:48:42.552Z,39.03
2022-10-23T10:52:04.258Z,37.63
2022-10-23T10:55:11.958Z,39.15
2022-10-23T10:58:03.166Z,36.80
2022-10-23T11:00:53.226Z,39.58
2022-10-23T11:03:44.173Z,44.03
2022-10-23T11:06:32.275Z,34.85
2022-10-23T11:09:21.692Z,33.63
2022-10-23T11:12:07.205Z,42.53
2022-10-23T11:14:53.021Z,47.97
2022-10-23T11:17:41.094Z,43.35
2022-10-23T11:20:40.094Z,40.40
2022-10-23T11:23:46.202Z,30.95
2022-10-23T11:26:41.475Z,28.65
2022-10-23T11:29:59.701Z,32.90
2022-10-23T11:33:04.437Z,30.48
2022-10-23T11:36:14.171Z,34.03
2022-10-23T11:39:15.461Z,35.13
2022-10-23T11:42:03.850Z,29.73
2022-10-23T11:44:50.428Z,32.13
2022-10-23T11:47:40.575Z,30.88
2022-10-23T11:50:32.946Z,26.73
2022-10-23T11:53:33.422Z,25.52
2022-10-23T11:56:19.615Z,27.88
2022-10-23T11:59:49.625Z,35.95
2022-10-23T12:02:39.922Z,43.77
2022-10-23T12:05:36.300Z,34.15
2022-10-23T12:08:26.748Z,29.23
2022-10-23T12:11:49.003Z,71.77
2022-10-23T12:14:39.036Z,31.90
2022-10-23T12:17:30.874Z,38.15
2022-10-23T12:20:25.824Z,32.92
2022-10-23T12:23:30.198Z,34.35
2022-10-23T12:26:42.000Z,30.90
2022-10-23T12:29:49.515Z,37.85
2022-10-23T12:32:57.515Z,27.10
2022-10-23T12:35:47.584Z,50.28
2022-10-23T12:38:35.644Z,29.30
2022-10-23T12:41:26.924Z,32.50
2022-10-23T12:44:13.040Z,32.17
2022-10-23T12:47:01.267Z,31.60
2022-10-23T12:49:50.914Z,27.83
2022-10-23T12:52:39.768Z,30.15
2022-10-23T12:55:26.499Z,32.85
2022-10-23T12:58:30.676Z,29.75
2022-10-23T13:01:31.065Z,42.35
2022-10-23T13:04:35.118Z,38.83
2022-10-23T13:07:24.315Z,37.53
2022-10-23T13:10:18.677Z,29.48
2022-10-23T13:13:17.858Z,33.03
2022-10-23T13:16:23.103Z,36.42
2022-10-23T13:19:23.060Z,36.70
2022-10-23T13:22:18.864Z,28.48
2022-10-23T13:25:23.379Z,32.45
2022-10-23T13:28:08.967Z,31.10
2022-10-23T13:31:12.475Z,40.72
2022-10-23T13:33:59.275Z,33.95
2022-10-23T13:37:01.168Z,34.22
2022-10-23T13:39:46.727Z,34.40
2022-10-23T13:42:32.584Z,35.33
2022-10-23T13:45:23.540Z,40.72
2022-10-23T13:48:14.129Z,47.40
2022-10-23T13:51:11.993Z,38.58
2022-10-23T13:53:58.203Z,35.58
2022-10-23T13:56:44.068Z,29.33
2022-10-23T13:59:31.142Z,31.05
2022-10-23T14:02:22.516Z,34.22
2022-10-23T14:05:09.414Z,32.00
2022-10-23T14:07:54.923Z,25.83
2022-10-23T14:10:40.940Z,30.65
2022-10-23T14:13:26.267Z,27.23
2022-10-23T14:16:13.496Z,33.03
2022-10-23T14:18:59.405Z,36.50
2022-10-23T14:21:45.109Z,33.25
2022-10-23T14:24:30.713Z,36.70
2022-10-23T14:27:16.528Z,55.78
2022-10-23T14:30:02.035Z,66.00
2022-10-23T14:32:47.972Z,37.42
2022-10-23T14:35:33.958Z,32.15
2022-10-23T14:38:19.518Z,34.80
2022-10-23T14:41:12.511Z,34.22
2022-10-23T14:43:58.579Z,31.90
2022-10-23T14:46:44.205Z,30.05
2022-10-23T14:49:35.721Z,29.92
2022-10-23T14:52:22.316Z,29.40
2022-10-23T14:55:08.807Z,38.78
2022-10-23T14:57:57.456Z,40.22
2022-10-23T15:00:43.647Z,46.85
2022-10-23T15:03:30.056Z,48.90
2022-10-23T15:06:18.347Z,45.05
2022-10-23T15:09:04.637Z,48.58
2022-10-23T15:11:50.575Z,46.55
2022-10-23T15:14:36.747Z,46.42
2022-10-23T15:17:22.810Z,42.67
2022-10-23T15:20:09.278Z,54.75
2022-10-23T15:22:55.111Z,50.85
2022-10-23T15:25:42.084Z,45.10
2022-10-23T15:28:28.848Z,49.90
2022-10-23T15:31:29.772Z,59.15
2022-10-23T15:34:19.113Z,177.00
2022-10-23T15:37:05.274Z,127.07
2022-10-23T15:39:51.506Z,126.03
2022-10-23T15:42:37.940Z,123.90
2022-10-23T15:45:26.613Z,129.15
2022-10-23T15:48:16.087Z,108.97
2022-10-23T15:51:02.415Z,115.13
2022-10-23T15:53:48.515Z,98.78
2022-10-23T15:56:35.489Z,101.80
2022-10-23T15:59:23.623Z,111.38
2022-10-23T16:02:11.646Z,143.68
2022-10-23T16:04:57.439Z,152.48
2022-10-23T16:07:43.178Z,231.80
2022-10-23T16:10:28.780Z,219.70
2022-10-23T16:13:15.099Z,206.85
2022-10-23T16:16:03.561Z,218.85
2022-10-23T16:18:49.635Z,203.93
2022-10-23T16:21:36.474Z,173.60
2022-10-23T16:24:22.518Z,204.32
2022-10-23T16:27:08.100Z,163.10
2022-10-23T16:29:53.921Z,119.57
2022-10-23T16:32:40.886Z,98.50
2022-10-23T16:35:27.430Z,117.28
2022-10-23T16:38:24.507Z,144.27
2022-10-23T16:41:10.506Z,130.98
2022-10-23T16:43:59.604Z,134.63
2022-10-23T16:47:06.878Z,159.57
2022-10-23T16:49:52.446Z,132.07
2022-10-23T16:52:38.196Z,132.63
2022-10-23T16:55:24.361Z,103.00
2022-10-23T16:58:10.213Z,171.20
2022-10-23T17:01:16.501Z,146.15
2022-10-23T17:04:06.875Z,139.98
2022-10-23T17:06:52.518Z,115.80
2022-10-23T17:09:38.421Z,109.47
2022-10-23T17:12:24.046Z,93.78
2022-10-23T17:15:10.315Z,82.60
2022-10-23T17:17:55.825Z,94.63
2022-10-23T17:20:41.809Z,105.10
2022-10-23T17:23:27.954Z,119.72
2022-10-23T17:26:16.931Z,119.70
2022-10-23T17:29:04.952Z,118.03
2022-10-23T17:31:51.321Z,150.13
2022-10-23T17:34:36.847Z,140.68
2022-10-23T17:37:22.652Z,246.85
2022-10-23T17:40:08.656Z,190.18
2022-10-23T17:42:55.103Z,97.55
2022-10-23T17:45:45.019Z,100.38
2022-10-23T17:48:31.199Z,105.82
2022-10-23T17:51:21.010Z,75.47
2022-10-23T17:54:09.780Z,73.55
2022-10-23T17:56:56.377Z,72.88
2022-10-23T17:59:42.803Z,91.40
2022-10-23T18:02:29.185Z,70.53
2022-10-23T18:05:15.787Z,63.83
2022-10-23T18:08:02.019Z,69.63
2022-10-23T18:10:48.209Z,85.68
2022-10-23T18:13:37.054Z,129.60
2022-10-23T18:16:23.352Z,102.88
2022-10-23T18:19:09.247Z,96.47
2022-10-23T18:21:55.296Z,88.40
2022-10-23T18:24:41.592Z,88.68
2022-10-23T18:27:27.706Z,85.20
2022-10-23T18:30:13.470Z,105.47
2022-10-23T18:32:59.043Z,125.90
2022-10-23T18:35:44.668Z,92.53
2022-10-23T18:38:31.368Z,71.38
2022-10-23T18:41:17.557Z,81.22
2022-10-23T18:44:03.667Z,87.93
2022-10-23T18:46:50.713Z,82.32
2022-10-23T18:49:36.523Z,77.50
2022-10-23T18:52:22.195Z,80.43
2022-10-23T18:55:09.324Z,76.85
2022-10-23T18:57:55.206Z,73.40
2022-10-23T19:00:41.796Z,65.13
2022-10-23T19:03:27.607Z,75.18
2022-10-23T19:06:17.662Z,82.78
2022-10-23T19:09:06.919Z,65.50
2022-10-23T19:11:52.689Z,64.20
2022-10-23T19:14:39.562Z,68.63
2022-10-23T19:17:29.211Z,67.07
2022-10-23T19:20:17.636Z,73.80
2022-10-23T19:23:05.503Z,61.08
2022-10-23T19:25:51.540Z,57.92
2022-10-23T19:28:40.337Z,57.60
2022-10-23T19:31:26.490Z,60.60
2022-10-23T19:34:12.429Z,58.90
2022-10-23T19:36:57.952Z,62.53
2022-10-23T19:39:44.417Z,50.78
2022-10-23T19:42:30.397Z,61.78
2022-10-23T19:45:16.844Z,56.85
2022-10-23T19:48:04.017Z,54.33
2022-10-23T19:50:50.406Z,57.13
2022-10-23T19:53:36.727Z,56.92
2022-10-23T19:56:23.023Z,52.05
2022-10-23T19:59:10.206Z,55.47
2022-10-23T20:01:56.863Z,49.40
2022-10-23T20:04:43.747Z,50.45
2022-10-23T20:07:29.491Z,51.95
2022-10-23T20:10:16.279Z,49.20
2022-10-23T20:13:18.850Z,52.10
2022-10-23T20:16:06.182Z,54.60
2022-10-23T20:18:52.445Z,55.22
2022-10-23T20:21:40.086Z,57.25
2022-10-23T20:24:26.339Z,54.58
2022-10-23T20:27:15.043Z,53.88
2022-10-23T20:30:01.432Z,52.70
2022-10-23T20:32:47.139Z,52.30
2022-10-23T20:35:41.155Z,51.53
2022-10-23T20:38:26.810Z,50.05
2022-10-23T20:41:12.806Z,54.80
2022-10-23T20:43:59.342Z,55.35
2022-10-23T20:46:45.805Z,53.53
2022-10-23T20:49:31.366Z,50.22
2022-10-23T20:52:17.670Z,54.42
2022-10-23T20:55:03.179Z,49.40
2022-10-23T20:57:49.143Z,49.50
2022-10-23T21:00:34.661Z,55.28
2022-10-23T21:03:20.680Z,50.67
2022-10-23T21:06:13.509Z,45.97
2022-10-23T21:09:03.208Z,49.53
2022-10-23T21:11:49.128Z,49.33
2022-10-23T21:14:35.837Z,48.30
2022-10-23T21:17:21.778Z,42.65
2022-10-23T21:20:08.324Z,44.08
2022-10-23T21:22:55.401Z,44.88
2022-10-23T21:25:41.673Z,47.60
2022-10-23T21:28:27.274Z,51.58
2022-10-23T21:31:13.184Z,48.65
2022-10-23T21:33:58.985Z,48.58
2022-10-23T21:37:10.808Z,43.40
2022-10-23T21:39:51.880Z,46.22
2022-10-23T21:42:37.919Z,44.05
2022-10-23T21:45:23.349Z,46.97
2022-10-23T21:48:09.079Z,46.40
2022-10-23T21:51:01.238Z,44.92
2022-10-23T21:53:47.080Z,51.80
2022-10-23T21:56:37.293Z,49.80
2022-10-23T21:59:27.737Z,47.05
2022-10-23T22:02:16.141Z,51.65
2022-10-23T22:05:02.167Z,48.92
2022-10-23T22:07:48.713Z,44.53
2022-10-23T22:10:35.566Z,52.00
2022-10-23T22:13:21.407Z,46.20
2022-10-23T22:16:07.400Z,51.53
2022-10-23T22:18:53.071Z,43.67
2022-10-23T22:21:39.182Z,45.70
2022-10-23T22:24:25.164Z,44.55
2022-10-23T22:27:11.228Z,43.00
2022-10-23T22:29:58.450Z,45.38
2022-10-23T22:32:44.328Z,41.90
2022-10-23T22:35:30.812Z,43.13
2022-10-23T22:38:16.833Z,42.85
2022-10-23T22:41:03.334Z,43.28
2022-10-23T22:43:54.320Z,41.83
2022-10-23T22:46:41.149Z,44.20
2022-10-23T22:49:26.648Z,46.33
2022-10-23T22:52:12.046Z,41.50
2022-10-23T22:54:58.060Z,42.58
2022-10-23T22:57:43.871Z,38.17
2022-10-23T23:00:30.394Z,39.83
2022-10-23T23:03:16.257Z,37.35
2022-10-23T23:06:02.956Z,39.05
2022-10-23T23:08:49.666Z,45.22
2022-10-23T23:11:45.700Z,39.60
2022-10-23T23:14:37.810Z,37.80
2022-10-23T23:17:23.495Z,37.58
2022-10-23T23:20:09.221Z,41.63
2022-10-23T23:22:55.015Z,41.33
2022-10-23T23:25:42.477Z,42.35
2022-10-23T23:28:28.583Z,42.08
2022-10-23T23:31:18.492Z,38.17
2022-10-23T23:34:04.703Z,42.47
2022-10-23T23:36:50.348Z,41.50
2022-10-23T23:39:36.245Z,46.78
2022-10-23T23:42:21.529Z,42.05
2022-10-23T23:45:14.620Z,42.78
2022-10-23T23:48:00.750Z,38.25
2022-10-23T23:50:46.624Z,40.13
2022-10-23T23:53:32.072Z,36.17
2022-10-23T23:56:19.041Z,43.85
2022-10-23T23:59:04.979Z,40.88
